AirNav   Phillips 66 Aviation Fuel
 
 918 users online  

5CL9 Table Mountain Field Airport
Auberry, California, USA

GOING TO AUBERRY?


FAA INFORMATION EFFECTIVE 20 JULY 2017

Location

FAA Identifier: 5CL9
Lat/Long: 37-08-28.8000N / 119-30-28.5000W
37-08.480000N / 119-30.475000W
37.1413333 / -119.5079167
(estimated)
Elevation: 1280 ft. / 390 m (estimated)
Variation: 15E (1990)
From city: 8 miles N of AUBERRY, CA
Time zone: UTC -7 (UTC -8 during Standard Time)
Zip code: 93602

Airport Operations

Airport use: Private use. Permission required prior to landing
Activation date: 05/1994
Control tower: no
ARTCC: OAKLAND CENTER
FSS: RANCHO MURIETA FLIGHT SERVICE STATION
Attendance: UNATNDD
Wind indicator: yes
Segmented circle: no

Nearby radio navigation aids

VOR radial/distance  VOR name  Freq  Var
FRAr045/4.7FRIANT VORTAC115.6017E
CZQr029/21.3CLOVIS VORTAC112.9015E

 
NDB name  Hdg/Dist  Freq  Var  ID
CHANDLER017/29.534415EFCH ..-. -.-. ....

Airport Services

Runway Information

Runway 15/33

Dimensions: 2000 x 50 ft. / 610 x 15 m
Surface: dirt
Operational restrictions: LANDING ONLY ON RY 15.
RUNWAY 15  RUNWAY 33
Traffic pattern: leftleft
Obstructions: none1000 ft. hill, 100 ft. from runway

Airport Ownership and Management from official FAA records

Ownership: Privately-owned
Owner: TABLE MOUNTAIN RANCHERIA
23736 SKY HARBOUR ROAD
FRIANT, CA 93626
Phone 559-822-2587
Manager: ANGELA KARST
23736 SKY HARBOUR ROAD
FRIANT, CA 93626
Phone 559-822-2597

Airport Operational Statistics

Aircraft based on the field: 1
Single engine airplanes: 1
    

Instrument Procedures

There are no published instrument procedures at 5CL9.

Some nearby airports with instrument procedures:

KFAT - Fresno Yosemite International Airport (24 nm SW)
KFCH - Fresno Chandler Executive Airport (29 nm SW)
KMAE - Madera Municipal Airport (30 nm W)
KMPI - Mariposa-Yosemite Airport (34 nm NW)
KMMH - Mammoth Yosemite Airport (43 nm NE)
 
Loc | Ops | Rwys | IFR | FBO | Links
Com | Nav | Svcs | Stats | Notes


 
Area around 5CL9 (Table Mountain Field Airport)
 
Road maps at: MapQuest Bing Google
 
Aerial photo
No photo
 
Sectional chart

 
Airport distance calculator
Flying to Table Mountain Field Airport? Find the distance to fly.

From to 5CL9

Sunrise and sunset
Times for 27-Jul-2017
 Local
(UTC-7)
 Zulu
(UTC)
Morning civil twilight05:3112:31
Sunrise06:0013:00
Sunset20:0903:09
Evening civil twilight20:3803:38

Current date and time
Zulu (UTC)  27-Jul-2017 12:36:53
Local (UTC-7)  27-Jul-2017 05:36:53
 
METAR
KFAT 
24nm SW 
271153Z 32005KT 10SM CLR 24/10 A2992 RMK AO2 SLP127 T02390100 10289 20239 53001
KFCH 
29nm SW 
271215Z AUTO RMK A01
KMAE 
31nm W 
271153Z AUTO 32004KT 10SM CLR 20/14 A2992 RMK AO2 SLP129 T02000139 10267 20200 57001
KMMH 
44nm NE 
271215Z AUTO 00000KT 10SM CLR 09/05 A3036 RMK AO2 T00850046
TAF
KFAT 
24nm SW 
271120Z 2712/2812 33004KT P6SM SKC FM280000 30007KT P6SM SKC
NOTAMs
Click for the latest NOTAMs
NOTAMs are issued by the DoD/FAA and will open in a separate window not controlled by AirNav.

 

 
 

Would you like to see your business listed on this page?

 If your business provides an interesting product or service to pilots, flight crews, aircraft, or users of the Table Mountain Field Airport, you should consider listing it here.  To start the listing process, click on the button below
 
Add a business
 

Other Pages about Table Mountain Field Airport

Update a link
 
Copyright © AirNav, LLC. All rights reserved. Privacy Policy  Contact